Weather observations for the past three days for
Tillamook, Tillamook Airport
Imperial (Metric)
Date Time (pdt) Wind (mph) Vis. (mi.) Weather Sky Cond. Temperature (ºF) Relative Humidity Wind Chill (°F) Heat Index (°F) Pressure Precipitation (in)
Air Dwpt 6 hour altimeter (in) sea level (mb) 1 hr 3 hr 6 hr
Max. Min.
08 03:35 Calm 10.00 Overcast OVC024 48.2 46.4 94% 30.12 0.0
08 03:15 Calm 10.00 Overcast OVC023 48.2 46.4 94% 30.11 0.0
08 02:55 Calm 10.00 Overcast OVC023 46.4 46.4 100% 30.11 0.0
08 02:35 SE 3 10.00 Overcast OVC021 46.4 46.4 100% 30.11 0.0
08 02:15 Calm 10.00 Overcast OVC020 46.4 46.4 100% 30.1 0.0
08 01:55 Calm 10.00 Overcast OVC019 46.4 46.4 100% 30.1 0.0
08 01:35 Calm 10.00 Overcast OVC019 46.4 46.4 100% 30.09 0.0
08 01:15 SE 3 10.00 Overcast OVC019 44.6 44.6 100% 30.09 0.0
08 00:55 Calm 10.00 Overcast OVC020 44.6 44.6 100% 30.1 0.0
08 00:35 SE 5 10.00 Mostly Cloudy BKN018 44.6 44.6 100% 43 30.09 0.0
08 00:15 Calm 10.00 Mostly Cloudy BKN018 44.6 44.6 100% 30.09 0.0
07 23:55 Calm 10.00 Mostly Cloudy BKN017 46.4 44.6 93% 30.09 0.0
07 23:35 Calm 10.00 Mostly Cloudy BKN016 44.6 44.6 100% 30.09 0.0
07 23:15 Calm 10.00 Mostly Cloudy BKN016 46.4 44.6 93% 30.09 0.0
07 22:55 Calm 10.00 Mostly Cloudy BKN016 46.4 46.4 100% 30.08 0.0
07 22:35 S 5 10.00 Mostly Cloudy BKN016 48.2 46.4 94% 47 30.09 0.0
07 22:15 Calm 10.00 Partly Cloudy SCT018 48.2 46.4 94% 30.09 0.0
07 21:55 SE 5 9.00 Mostly Cloudy BKN018 48.2 46.4 94% 47 30.09 0.0
07 21:35 Calm 10.00 Mostly Cloudy BKN018 48.2 46.4 94% 30.09 0.0
07 21:15 S 3 10.00 A Few Clouds FEW018 50 46.4 88% 30.09 0.0
07 20:55 Calm 10.00 Fair CLR 51.8 46.4 82% 30.08 0.0
07 20:35 W 5 10.00 Fair CLR 51.8 46.4 82% 30.08 0.0
07 20:15 NW 6 10.00 Fair CLR 51.8 46.4 82% 30.07 0.0
07 19:55 NW 6 10.00 Fair CLR 51.8 46.4 82% 30.07 0.0
07 19:35 NW 6 10.00 Fair CLR 53.6 48.2 82% 30.08 0.0
07 19:15 NW 5 10.00 Fair CLR 55.4 48.2 77% 30.08 0.0
07 18:55 NW 6 10.00 Fair CLR 55.4 48.2 77% 30.08 0.0
07 18:35 NW 9 10.00 Fair CLR 55.4 48.2 77% 30.08 0.0
07 18:15 NW 9 10.00 Fair CLR 57.2 48.2 72% 30.08 0.0
07 17:55 NW 9 10.00 Fair CLR 57.2 48.2 72% 30.09 0.0
07 17:35 NW 10 10.00 Fair CLR 59 46.4 63% 30.09 0.0
07 17:15 NW 9 10.00 Fair CLR 59 48.2 68% 30.09 0.0
07 16:55 NW 8 9.00 Fair CLR 59 46.4 63% 30.09 0.0
07 16:35 NW 10 10.00 Fair CLR 59 48.2 68% 30.09 0.0
07 16:15 NW 10 G 16 10.00 Fair CLR 59 48.2 68% 30.1 0.0
07 15:55 NW 10 10.00 Fair CLR 60.8 48.2 63% 30.11 0.0
07 15:35 NW 12 10.00 Fair CLR 60.8 48.2 63% 30.11 0.0
07 15:15 NW 10 G 16 10.00 Fair CLR 60.8 48.2 63% 30.11 0.0
07 14:55 NW 12 10.00 Fair CLR 60.8 48.2 63% 30.12 0.0
07 14:35 NW 13 10.00 Fair CLR 60.8 48.2 63% 30.12 0.0
07 14:15 NW 12 10.00 Fair CLR 60.8 46.4 59% 30.12 0.0
07 13:55 NW 10 G 17 10.00 Fair CLR 60.8 46.4 59% 30.11 0.0
07 13:35 NW 9 10.00 Fair CLR 60.8 46.4 59% 30.12 0.0
07 13:15 NW 10 10.00 Fair CLR 60.8 48.2 63% 30.12 0.0
07 12:55 NW 9 10.00 Fair CLR 60.8 48.2 63% 30.12 0.0
07 12:35 NW 10 10.00 Fair CLR 60.8 46.4 59% 30.12 0.0
07 12:15 NW 8 G 14 10.00 Fair CLR 60.8 46.4 59% 30.13 0.0
07 11:55 NW 8 10.00 Fair CLR 60.8 46.4 59% 30.14 0.0
07 11:35 Vrbl 3 10.00 Fair CLR 59 46.4 63% 30.14 0.0
07 11:15 Calm 10.00 Fair CLR 57.2 46.4 67% 30.15 0.0
07 10:55 Vrbl 3 10.00 Partly Cloudy SCT026 57.2 46.4 67% 30.15 0.0
07 10:35 Calm 10.00 Mostly Cloudy BKN027 55.4 46.4 72% 30.16 0.0
07 10:15 Calm 10.00 Overcast OVC027 55.4 46.4 72% 30.16 0.0
07 09:55 Vrbl 5 10.00 Overcast OVC024 55.4 46.4 72% 30.17 0.0
07 09:35 NW 5 10.00 Overcast OVC022 53.6 46.4 77% 30.17 0.0
07 09:15 NW 5 10.00 Overcast OVC021 53.6 46.4 77% 30.17 0.0
07 08:55 NW 5 10.00 Overcast OVC022 51.8 44.6 77% 30.17 0.0
07 08:35 Calm 10.00 Overcast OVC023 51.8 44.6 77% 30.17 0.0
07 08:15 Calm 10.00 Overcast OVC023 51.8 44.6 77% 30.17 0.0
07 07:55 Calm 10.00 Overcast OVC023 51.8 44.6 77% 30.17 0.0
07 07:35 W 3 10.00 Overcast OVC023 51.8 46.4 82% 30.17 0.0
07 07:15 Calm 10.00 Overcast OVC022 50 46.4 88% 30.17 0.0
07 06:55 Calm 10.00 Overcast OVC021 50 46.4 88% 30.16 0.0
07 06:35 N 6 10.00 Overcast OVC021 50 48.2 94% 48 30.16 0.0
07 06:15 Calm 10.00 Overcast OVC021 50 46.4 88% 30.16 0.0
07 05:55 Calm 10.00 Overcast OVC021 50 46.4 88% 30.15 0.0
07 05:35 Calm 10.00 Overcast OVC022 50 48.2 94% 30.15 0.0
07 05:15 Calm 10.00 Overcast OVC025 50 50 100% 30.16 0.0
07 04:55 Calm 10.00 Overcast OVC026 50 50 100% 30.17 0.0
07 04:35 Calm 10.00 Overcast OVC028 51.8 48.2 88% 30.17 0.0
07 04:15 W 3 7.00 Overcast OVC027 51.8 48.2 88% 30.17 0.0
07 03:55 Calm 9.00 Overcast OVC027 51.8 48.2 88% 30.17 0.0
07 03:35 Calm 10.00 Overcast OVC028 51.8 48.2 88% 30.18 0.0
07 03:15 Calm 10.00 Overcast OVC028 51.8 48.2 88% 30.18 0.0
07 02:55 Calm 10.00 Overcast OVC028 51.8 48.2 88% 30.18 0.0
07 02:35 Calm 10.00 Overcast OVC028 53.6 50 88% 30.19 0.0
07 02:15 Calm 10.00 Overcast OVC028 53.6 50 88% 30.19 0.0
07 01:55 W 3 10.00 Overcast OVC027 53.6 50 88% 30.2 0.0
07 01:35 NW 3 10.00 Overcast OVC027 53.6 50 88% 30.2 0.0
07 01:15 NW 6 10.00 Overcast OVC027 53.6 50 88% 30.2 0.0
07 00:55 Calm 10.00 Overcast OVC026 53.6 51.8 94% 30.2 0.0
07 00:15 Calm 10.00 Overcast OVC025 53.6 50 88% 30.19 0.0
06 23:55 NW 3 10.00 Overcast OVC024 55.4 48.2 77% 30.19 0.0
06 23:35 NW 6 10.00 Overcast OVC022 53.6 48.2 82% 30.2 0.0
06 23:15 NW 8 10.00 Overcast OVC022 55.4 50 82% 30.2 0.0
06 22:55 NW 7 10.00 Overcast OVC022 55.4 50 82% 30.2 0.0
06 22:35 NW 5 10.00 Overcast OVC021 53.6 51.8 94% 30.21 0.0
06 22:15 NW 6 10.00 Overcast OVC021 53.6 53.6 100% 30.21 0.0
06 21:55 NW 7 10.00 Overcast OVC021 53.6 53.6 100% 30.21 0.0
06 21:35 NW 7 10.00 Overcast OVC023 53.6 51.8 94% 30.21 0.0
06 21:15 NW 8 10.00 Overcast OVC024 55.4 51.8 88% 30.21 0.0
06 20:35 NW 10 10.00 Overcast OVC025 55.4 51.8 88% 30.2 0.0
06 20:15 NW 8 10.00 Overcast OVC024 55.4 51.8 88% 30.2 0.0
06 19:55 NW 12 10.00 Overcast OVC023 55.4 51.8 88% 30.19 0.0
06 19:35 NW 9 10.00 Overcast FEW017 OVC024 55.4 53.6 94% 30.19 0.0
06 19:15 NW 9 10.00 Overcast BKN017 OVC023 55.4 53.6 94% 30.19 0.0
06 18:55 NW 7 10.00 Overcast BKN020 OVC024 55.4 53.6 94% 30.19 0.0
06 18:35 NW 6 10.00 Overcast SCT017 OVC024 55.4 53.6 94% 30.2 0.0
06 18:15 NW 8 10.00 Overcast BKN016 OVC024 55.4 53.6 94% 30.2 0.0
06 17:55 NW 7 10.00 Unknown Precip BKN015 OVC021 55.4 53.6 94% 30.2 0.0
06 17:35 NW 8 10.00 Overcast FEW015 OVC021 55.4 53.6 94% 30.2 0.0
06 17:15 NW 9 10.00 Overcast BKN014 OVC022 55.4 53.6 94% 30.2 0.0
06 16:55 W 6 10.00 Overcast BKN014 OVC018 57.2 53.6 88% 30.2 0.0
06 16:35 W 8 10.00 Overcast BKN013 OVC023 57.2 53.6 88% 30.2 0.0
06 16:15 W 8 10.00 Overcast OVC023 57.2 53.6 88% 30.21 0.0
06 15:55 W 7 10.00 Overcast OVC023 57.2 53.6 88% 30.21 0.0
06 15:35 W 8 10.00 Overcast FEW015 OVC024 57.2 53.6 88% 30.22 0.0
06 15:15 W 8 10.00 Overcast FEW015 OVC023 57.2 53.6 88% 30.22 0.0
06 14:55 W 8 10.00 Overcast OVC023 57.2 53.6 88% 30.21 0.0
06 14:35 W 7 10.00 Overcast OVC020 57.2 51.8 82% 30.21 0.0
06 14:15 W 7 10.00 Overcast OVC019 57.2 51.8 82% 30.21 0.0
06 13:55 W 7 10.00 Overcast OVC019 57.2 51.8 82% 30.21 0.0
06 13:35 W 7 10.00 Overcast OVC019 57.2 51.8 82% 30.21 0.0
06 13:15 W 7 10.00 Overcast OVC020 57.2 51.8 82% 30.2 0.0
06 12:55 W 6 10.00 Overcast OVC020 57.2 51.8 82% 30.21 0.0
06 12:35 W 6 10.00 Overcast OVC019 57.2 51.8 82% 30.2 0.0
06 12:15 Vrbl 3 10.00 Overcast OVC018 57.2 51.8 82% 30.2 0.0
06 11:55 W 6 10.00 Overcast OVC017 57.2 51.8 82% 30.2 0.0
06 11:35 W 7 10.00 Overcast OVC017 57.2 51.8 82% 30.2 0.0
06 11:15 W 7 10.00 Overcast OVC017 57.2 51.8 82% 30.2 0.0
06 10:55 W 8 10.00 Overcast OVC017 57.2 51.8 82% 30.19 0.0
06 10:35 Calm 10.00 Overcast OVC017 57.2 51.8 82% 30.18 0.0
06 10:15 Calm 10.00 Overcast OVC016 57.2 51.8 82% 30.18 0.0
06 09:55 W 5 10.00 Overcast OVC016 55.4 51.8 88% 30.18 0.0
06 09:35 Calm 10.00 Overcast OVC016 55.4 51.8 88% 30.17 0.0
06 09:15 W 5 10.00 Overcast OVC016 55.4 51.8 88% 30.17 0.0
06 08:55 Calm 10.00 Overcast OVC016 55.4 51.8 88% 30.17 0.0
06 08:35 SW 5 10.00 Overcast OVC016 55.4 51.8 88% 30.17 0.0
06 08:15 SW 6 10.00 Overcast OVC016 55.4 51.8 88% 30.16 0.0
06 07:55 SE 6 10.00 Overcast OVC018 53.6 51.8 94% 30.15 0.0
06 07:35 SE 5 10.00 Overcast OVC017 53.6 53.6 100% 30.15 0.0
06 07:15 Calm 10.00 Overcast BKN015 OVC019 53.6 51.8 94% 30.16 0.0
06 06:55 Calm 10.00 Overcast OVC017 53.6 51.8 94% 30.16 0.0
06 06:35 W 3 9.00 Overcast OVC014 53.6 51.8 94% 30.16 0.0
06 06:15 Calm 10.00 Overcast OVC015 53.6 51.8 94% 30.14 0.0
06 05:55 Calm 10.00 Overcast OVC016 53.6 53.6 100% 30.15 0.0
06 05:35 Calm 10.00 Overcast OVC016 53.6 53.6 100% 30.14 0.0
06 05:15 Calm 10.00 Overcast OVC012 53.6 53.6 100% 30.13 0.0
06 04:55 Calm 10.00 Overcast OVC011 53.6 53.6 100% 30.13 0.0
06 04:35 Calm 10.00 Overcast OVC013 53.6 53.6 100% 30.12 0.0
06 04:15 Calm 9.00 Overcast OVC014 53.6 51.8 94% 30.13 0.0
06 03:55 Calm 7.00 Overcast OVC014 53.6 53.6 100% 30.12 0.0
06 03:35 W 3 9.00 Overcast OVC012 53.6 53.6 100% 30.12 0.0
06 03:15 W 3 9.00 Overcast OVC012 53.6 51.8 94% 30.12 0.0
06 02:55 Calm 9.00 Overcast OVC012 55.4 51.8 88% 30.11 0.0
06 02:35 Vrbl 3 10.00 Overcast OVC013 55.4 53.6 94% 30.11 0.0
06 02:15 Calm 10.00 Overcast OVC013 55.4 53.6 94% 30.1 0.0
06 01:55 Calm 10.00 Overcast OVC014 55.4 53.6 94% 30.1 0.0
06 01:35 W 3 10.00 Overcast OVC014 55.4 53.6 94% 30.1 0.0
06 01:15 Calm 10.00 Overcast OVC013 55.4 51.8 88% 30.09 0.0
06 00:55 Calm 10.00 Overcast OVC013 55.4 51.8 88% 30.09 0.0
06 00:35 Calm 10.00 Overcast OVC014 55.4 53.6 94% 30.08 0.0
06 00:15 Calm 10.00 Overcast OVC014 55.4 51.8 88% 30.08 0.0
05 23:55 Calm 10.00 Overcast OVC015 55.4 53.6 94% 30.07 0.0
05 23:35 Calm 10.00 Overcast OVC015 55.4 53.6 94% 30.07 0.0
05 23:15 Calm 10.00 Overcast OVC015 55.4 51.8 88% 30.07 0.0
05 22:55 Calm 10.00 Overcast OVC015 55.4 51.8 88% 30.07 0.0
05 22:15 Calm 10.00 Overcast OVC016 55.4 51.8 88% 30.07 0.0
05 21:55 Calm 10.00 Overcast OVC016 57.2 51.8 82% 30.07 0.0
05 21:35 Calm 10.00 Overcast OVC016 57.2 51.8 82% 30.06 0.0
05 21:15 Calm 10.00 Overcast OVC016 57.2 51.8 82% 30.06 0.0
05 20:55 Calm 10.00 Overcast OVC017 57.2 51.8 82% 30.06 0.0
05 20:35 NW 5 10.00 Overcast OVC017 57.2 51.8 82% 30.05 0.0
05 20:15 W 3 10.00 Overcast OVC017 57.2 51.8 82% 30.04 0.0
05 19:55 W 5 10.00 Overcast OVC018 57.2 51.8 82% 30.04 0.0
05 19:35 W 6 10.00 Overcast OVC018 57.2 51.8 82% 30.03 0.0
05 19:15 W 3 10.00 Overcast OVC018 57.2 51.8 82% 30.03 0.0
05 18:55 NW 6 10.00 Overcast OVC018 57.2 51.8 82% 30.03 0.0
05 18:35 NW 5 10.00 Overcast OVC019 59 51.8 77% 30.03 0.0
05 18:15 NW 6 10.00 Overcast OVC020 59 51.8 77% 30.03 0.0
05 17:55 NW 9 10.00 Overcast OVC021 59 51.8 77% 30.03 0.0
05 17:35 NW 8 10.00 Overcast OVC020 59 51.8 77% 30.03 0.0
05 17:15 NW 8 10.00 Overcast OVC020 59 53.6 82% 30.03 0.0
05 16:55 NW 9 10.00 Overcast OVC021 60.8 53.6 77% 30.03 0.0
05 16:35 W 7 10.00 Overcast OVC022 60.8 53.6 77% 30.03 0.0
05 16:15 W 9 10.00 Overcast OVC022 60.8 51.8 72% 30.03 0.0
05 15:55 SW 7 10.00 Overcast OVC023 60.8 51.8 72% 30.04 0.0
05 15:35 W 6 10.00 Overcast OVC022 60.8 51.8 72% 30.04 0.0
05 15:15 W 6 10.00 Overcast OVC022 60.8 53.6 77% 30.04 0.0
05 14:55 W 5 10.00 Overcast OVC023 60.8 51.8 72% 30.04 0.0
05 14:35 W 8 10.00 Overcast OVC022 60.8 53.6 77% 30.04 0.0
05 14:15 NW 5 10.00 Overcast OVC022 59 51.8 77% 30.05 0.0
05 13:55 NW 3 10.00 Overcast OVC021 59 51.8 77% 30.05 0.0
05 13:35 N 5 10.00 Overcast OVC020 59 51.8 77% 30.05 0.0
05 13:15 Calm 10.00 Overcast OVC018 59 51.8 77% 30.05 0.0
05 12:35 NW 5 10.00 Overcast OVC018 57.2 51.8 82% 30.05 0.0
05 12:15 Calm 10.00 Overcast OVC017 59 51.8 77% 30.05 0.0
05 11:55 Calm 10.00 Overcast OVC017 57.2 51.8 82% 30.05 0.0
05 11:35 W 5 10.00 Overcast OVC017 57.2 51.8 82% 30.05 0.0
05 11:15 W 5 2.50 Overcast with Haze OVC017 57.2 51.8 82% 30.05 0.0
05 10:55 Calm 4.00 Overcast with Haze OVC017 57.2 51.8 82% 30.04 0.0
05 10:35 Calm 2.00 Fog/Mist OVC016 57.2 51.8 82% 30.04 0.0
05 10:15 Calm 0.75 Light Rain Fog/Mist OVC016 55.4 51.8 88% 30.03 0.0
05 09:55 Calm 9.00 Overcast OVC018 57.2 53.6 88% 30.03 0.0
05 09:35 Calm 8.00 Overcast OVC018 55.4 53.6 94% 30.03 0.0
05 09:15 Calm 10.00 Overcast OVC018 55.4 53.6 94% 30.02 0.0
05 08:55 Calm 10.00 Overcast OVC018 55.4 53.6 94% 30.02 0.0
05 08:35 Calm 10.00 Overcast OVC019 55.4 53.6 94% 30.02 0.0
05 08:15 Calm 10.00 Overcast OVC020 55.4 53.6 94% 30.02 0.0
05 07:55 NE 3 10.00 Overcast OVC020 53.6 53.6 100% 30.01 0.0
05 07:35 Calm 10.00 Overcast OVC018 53.6 53.6 100% 30.01 0.0
05 07:15 Calm 10.00 Overcast OVC018 53.6 53.6 100% 30.01 0.0
05 06:55 NE 5 10.00 Overcast OVC019 53.6 53.6 100% 30 0.0
05 06:35 Calm 10.00 Overcast OVC018 53.6 53.6 100% 30 0.0
05 06:15 Calm 10.00 Overcast OVC018 53.6 53.6 100% 30 0.0
05 05:55 Calm 8.00 Overcast OVC017 53.6 53.6 100% 29.99 0.0
05 05:35 Calm 10.00 Overcast OVC017 53.6 53.6 100% 29.99 0.0
05 05:15 Calm 8.00 Overcast OVC016 53.6 53.6 100% 29.99 0.0
05 04:55 Calm 5.00 Unknown Precip Fog/Mist OVC015 53.6 53.6 100% 29.99 0.0
05 04:35 Calm 7.00 Unknown Precip OVC014 53.6 53.6 100% 29.99 0.0
05 04:15 Calm 10.00 Overcast FEW005 OVC015 53.6 53.6 100% 29.98 0.0
05 03:55 Calm 9.00 Overcast OVC013 53.6 53.6 100% 29.98 0.0
Date Time (pdt) Wind (mph) Vis. (mi.) Weather Sky Cond. Air Dwpt Max. Min. Relative Humidity Wind Chill (°F) Heat Index (°F) altimeter (in) sea level (mb) 1 hr 3 hr 6 hr
6 hour
Temperature (ºF) Pressure Precipitation (in)